Time;durP1;ratioP1;P1;durP2;ratioP2;P2;SDS_P1;SDS_P2;PMS_P1;PMS_P2;Temp;Humidity;BMP_temperature;BMP_pressure;BME280_temperature;BME280_humidity;BME280_pressure;Samples;Min_cycle;Max_cycle;Signal;HPM_P1;HPM_P2
2023/11/20 00:01:47;;;;;;;;;;;;;;;16.68;43.63;100564.28;5085631;28;1157;-51
2023/11/20 00:04:12;;;;;;;;;;;;;;;16.44;44.39;100553.13;5114752;28;1069;-46
2023/11/20 00:06:38;;;;;;;;;;;;;;;17.56;41.81;100539.16;5103679;28;1081;-50
2023/11/20 00:09:04;;;;;;;;;;;;;;;16.75;43.50;100542.84;5109672;28;1074;-46
2023/11/20 00:11:29;;;;;;;;;;;;;;;16.94;43.34;100550.50;5105972;28;1068;-47
2023/11/20 00:13:55;;;;;;;;;;;;;;;17.04;42.96;100547.72;5105375;28;1073;-49
2023/11/20 00:16:20;;;;;;;;;;;;;;;16.50;43.95;100552.00;5119794;28;1909;-48
2023/11/20 00:18:46;;;;;;;;;;;;;;;16.57;44.19;100546.22;5100440;28;1153;-49
2023/11/20 00:21:12;;;;;;;;;;;;;;;17.39;42.23;100561.50;5101051;28;899;-49
2023/11/20 00:23:38;;;;;;;;;;;;;;;16.62;43.64;100554.44;5099529;28;1140;-47
2023/11/20 00:26:04;;;;;;;;;;;;;;;16.25;44.44;100550.13;5099102;28;1082;-47
2023/11/20 00:28:30;;;;;;;;;;;;;;;17.18;42.63;100550.66;5099417;28;1086;-46
2023/11/20 00:30:55;;;;;;;;;;;;;;;16.88;42.89;100548.84;5081115;28;2276;-45
2023/11/20 00:33:21;;;;;;;;;;;;;;;16.39;44.26;100553.94;5090162;28;1133;-47
2023/11/20 00:35:46;;;;;;;;;;;;;;;16.73;43.41;100544.22;5111577;28;1093;-48
2023/11/20 00:38:12;;;;;;;;;;;;;;;17.46;41.75;100540.06;5119266;28;1979;-47
2023/11/20 00:40:38;;;;;;;;;;;;;;;16.65;43.49;100548.38;5106999;28;1121;-47
2023/11/20 00:43:04;;;;;;;;;;;;;;;16.24;44.34;100553.94;5113612;28;1118;-45
2023/11/20 00:45:29;;;;;;;;;;;;;;;16.12;44.93;100548.78;5113693;28;1421;-46
2023/11/20 00:47:55;;;;;;;;;;;;;;;17.47;41.88;100557.34;5106134;28;1124;-46
2023/11/20 00:50:20;;;;;;;;;;;;;;;16.70;43.56;100553.03;5108329;28;1193;-49
2023/11/20 00:52:46;;;;;;;;;;;;;;;16.21;44.33;100538.06;5084295;28;947;-47
2023/11/20 00:55:12;;;;;;;;;;;;;;;16.05;44.78;100540.81;5107909;28;1214;-49
2023/11/20 00:57:38;;;;;;;;;;;;;;;17.33;41.99;100551.66;5104601;28;1968;-45
2023/11/20 01:00:06;;;;;;;;;;;;;;;17.14;42.26;100554.25;5119030;28;1064;-46
2023/11/20 01:02:32;;;;;;;;;;;;;;;16.49;43.94;100552.28;5104524;28;1151;-47
2023/11/20 01:04:57;;;;;;;;;;;;;;;16.20;44.36;100553.69;5118945;28;1052;-47
2023/11/20 01:07:24;;;;;;;;;;;;;;;17.51;41.82;100541.94;5114677;28;1157;-50
2023/11/20 01:09:49;;;;;;;;;;;;;;;16.76;43.11;100541.75;5103802;28;1011;-46
2023/11/20 01:12:15;;;;;;;;;;;;;;;16.28;44.22;100549.56;5116243;28;1015;-48
2023/11/20 01:14:40;;;;;;;;;;;;;;;16.34;44.14;100547.63;5118423;28;1074;-46
2023/11/20 01:17:06;;;;;;;;;;;;;;;17.39;41.72;100536.78;5118258;28;1910;-48
2023/11/20 01:19:32;;;;;;;;;;;;;;;16.56;43.47;100528.09;5107815;28;1084;-45
2023/11/20 01:21:57;;;;;;;;;;;;;;;16.19;44.41;100534.78;5101639;28;1196;-49
2023/11/20 01:24:23;;;;;;;;;;;;;;;17.03;42.88;100528.78;5118207;28;1077;-46
2023/11/20 01:26:49;;;;;;;;;;;;;;;16.86;42.83;100534.59;5104950;28;1149;-45
2023/11/20 01:29:14;;;;;;;;;;;;;;;16.31;44.19;100538.03;5118517;28;1129;-49
2023/11/20 01:31:40;;;;;;;;;;;;;;;15.98;45.08;100539.47;5118232;28;1023;-46
2023/11/20 01:34:05;;;;;;;;;;;;;;;17.23;42.33;100541.56;5100620;28;912;-48
2023/11/20 01:36:31;;;;;;;;;;;;;;;16.81;43.15;100534.59;5096771;28;1913;-50
2023/11/20 01:38:56;;;;;;;;;;;;;;;16.24;44.33;100538.34;5107998;28;1089;-51
2023/11/20 01:41:22;;;;;;;;;;;;;;;16.21;44.57;100538.06;5111521;28;1011;-48
2023/11/20 01:43:47;;;;;;;;;;;;;;;17.54;41.43;100542.16;5108211;28;1142;-48
2023/11/20 01:46:13;;;;;;;;;;;;;;;16.81;42.84;100538.16;5117647;28;871;-47
2023/11/20 01:48:39;;;;;;;;;;;;;;;16.32;44.05;100523.22;5099765;28;1114;-48
2023/11/20 01:51:05;;;;;;;;;;;;;;;16.53;43.66;100528.66;5099712;28;1177;-45
2023/11/20 01:53:30;;;;;;;;;;;;;;;17.14;42.19;100527.59;5100055;28;1041;-44
2023/11/20 01:55:56;;;;;;;;;;;;;;;16.41;43.78;100527.03;5095960;28;1085;-47
2023/11/20 01:58:22;;;;;;;;;;;;;;;16.99;42.82;100528.50;5104989;28;1902;-47
2023/11/20 02:00:47;;;;;;;;;;;;;;;16.88;42.70;100530.47;5092914;28;1544;-44
2023/11/20 02:03:13;;;;;;;;;;;;;;;16.30;44.11;100530.06;5079162;28;1314;-50
2023/11/20 02:05:38;;;;;;;;;;;;;;;17.41;41.77;100529.91;5114608;28;1106;-46
2023/11/20 02:08:04;;;;;;;;;;;;;;;16.81;42.83;100534.59;5117783;28;1093;-48
2023/11/20 02:10:29;;;;;;;;;;;;;;;16.34;43.98;100532.00;5102631;28;970;-48
2023/11/20 02:12:58;;;;;;;;;;;;;;;16.28;44.08;100530.34;5117492;28;1129;-44
2023/11/20 02:15:24;;;;;;;;;;;;;;;17.52;41.63;100527.91;5100406;28;1077;-47
2023/11/20 02:17:49;;;;;;;;;;;;;;;16.65;43.29;100515.44;5078768;28;1902;-48
2023/11/20 02:20:15;;;;;;;;;;;;;;;16.26;44.24;100518.84;5096051;28;1290;-47
2023/11/20 02:22:40;;;;;;;;;;;;;;;17.54;41.53;100511.13;5098410;28;896;-48
2023/11/20 02:25:07;;;;;;;;;;;;;;;16.94;42.74;100523.03;5113489;28;1014;-49
2023/11/20 02:27:39;;;;;;;;;;;;;;;16.41;43.80;100527.03;5078973;28;2141;-44
2023/11/20 02:30:05;;;;;;;;;;;;;;;16.13;44.38;100524.91;5082998;28;1568;-50
2023/11/20 02:32:31;;;;;;;;;;;;;;;16.39;44.01;100523.75;5117292;28;1175;-45
2023/11/20 02:34:56;;;;;;;;;;;;;;;17.52;41.27;100525.16;5109577;28;1077;-49
2023/11/20 02:37:22;;;;;;;;;;;;;;;16.66;43.34;100524.50;5096935;28;1897;-47
2023/11/20 02:39:48;;;;;;;;;;;;;;;16.24;44.37;100532.00;5114295;28;1094;-47
2023/11/20 02:42:15;;;;;;;;;;;;;;;16.87;42.87;100541.69;5116012;28;873;-47
2023/11/20 02:44:40;;;;;;;;;;;;;;;17.49;41.32;100544.97;5099759;28;1048;-44
2023/11/20 02:47:08;;;;;;;;;;;;;;;16.61;43.57;100547.28;5117281;28;1034;-46
2023/11/20 02:49:37;;;;;;;;;;;;;;;16.48;43.80;100536.88;5101796;28;1185;-46
2023/11/20 02:52:04;;;;;;;;;;;;;;;17.49;41.49;100528.47;5103691;28;1394;-45
2023/11/20 02:54:29;;;;;;;;;;;;;;;16.59;43.33;100525.63;5109423;28;1149;-49
2023/11/20 02:56:56;;;;;;;;;;;;;;;16.28;44.36;100524.88;5098113;28;1965;-44
2023/11/20 02:59:22;;;;;;;;;;;;;;;16.80;43.23;100519.22;5103689;28;1086;-46
2023/11/20 03:01:48;;;;;;;;;;;;;;;17.04;42.33;100522.16;5110001;28;1221;-46
2023/11/20 03:04:14;;;;;;;;;;;;;;;16.40;43.98;100528.13;5109669;28;1208;-47
2023/11/20 03:06:40;;;;;;;;;;;;;;;16.40;43.96;100525.38;5102934;28;1192;-44
2023/11/20 03:09:07;;;;;;;;;;;;;;;17.40;41.86;100524.69;5095705;28;1130;-44
2023/11/20 03:11:33;;;;;;;;;;;;;;;16.55;43.47;100529.19;5103346;28;979;-44
2023/11/20 03:13:58;;;;;;;;;;;;;;;16.90;42.83;100527.44;5116575;28;1098;-48
2023/11/20 03:16:24;;;;;;;;;;;;;;;17.10;42.28;100532.84;5096305;28;1971;-53
2023/11/20 03:18:49;;;;;;;;;;;;;;;16.48;43.52;100525.91;5091975;28;1225;-48
2023/11/20 03:21:15;;;;;;;;;;;;;;;16.15;44.39;100522.72;5103453;28;1161;-49
2023/11/20 03:23:41;;;;;;;;;;;;;;;16.25;44.21;100512.53;5103252;28;1129;-50
2023/11/20 03:26:07;;;;;;;;;;;;;;;17.39;41.64;100515.63;5098438;28;1106;-54
2023/11/20 03:28:33;;;;;;;;;;;;;;;16.51;43.47;100508.88;5115673;28;1160;-53
2023/11/20 03:30:59;;;;;;;;;;;;;;;16.31;44.27;100516.06;5096245;28;1062;-49
2023/11/20 03:33:24;;;;;;;;;;;;;;;17.31;41.77;100526.41;5098851;28;1054;-53
2023/11/20 03:35:50;;;;;;;;;;;;;;;16.54;43.43;100508.34;5101632;28;1327;-51
2023/11/20 03:38:15;;;;;;;;;;;;;;;16.30;44.23;100500.72;5083952;28;1965;-49
2023/11/20 03:40:42;;;;;;;;;;;;;;;17.64;41.13;100491.78;5085327;28;1122;-49
2023/11/20 03:43:07;;;;;;;;;;;;;;;16.83;42.92;100489.28;5106964;28;1239;-53
2023/11/20 03:45:33;;;;;;;;;;;;;;;16.34;44.10;100488.09;5113217;28;1180;-51
2023/11/20 03:47:58;;;;;;;;;;;;;;;17.03;42.65;100488.38;5118283;28;1117;-49
2023/11/20 03:50:24;;;;;;;;;;;;;;;17.00;42.42;100494.44;5109046;28;1069;-52
2023/11/20 03:52:49;;;;;;;;;;;;;;;16.37;43.87;100479.31;5082048;28;1205;-49
2023/11/20 03:55:15;;;;;;;;;;;;;;;16.12;44.62;100482.09;5110070;28;1170;-50
2023/11/20 03:57:41;;;;;;;;;;;;;;;17.42;41.53;100478.50;5085464;28;1914;-50
2023/11/20 04:00:07;;;;;;;;;;;;;;;16.93;42.63;100470.03;5081534;28;990;-46
2023/11/20 04:02:33;;;;;;;;;;;;;;;16.40;44.01;100478.75;5115574;28;1166;-47
2023/11/20 04:04:58;;;;;;;;;;;;;;;16.13;44.36;100481.00;5114094;28;891;-47
2023/11/20 04:07:24;;;;;;;;;;;;;;;17.01;42.52;100485.09;5085405;28;1177;-45
2023/11/20 04:09:49;;;;;;;;;;;;;;;17.16;42.04;100475.94;5099837;28;1054;-47
2023/11/20 04:12:15;;;;;;;;;;;;;;;16.51;43.68;100487.78;5102304;28;1118;-50
2023/11/20 04:14:40;;;;;;;;;;;;;;;16.14;44.29;100501.84;5110922;28;1335;-47
2023/11/20 04:17:06;;;;;;;;;;;;;;;16.72;43.04;100499.47;5107381;28;1905;-49
2023/11/20 04:19:31;;;;;;;;;;;;;;;17.31;41.66;100497.00;5084554;28;1401;-47
2023/11/20 04:21:57;;;;;;;;;;;;;;;16.51;43.57;100493.25;5101426;28;1284;-50
2023/11/20 04:24:22;;;;;;;;;;;;;;;16.28;44.12;100489.19;5101739;28;1035;-46
2023/11/20 04:26:48;;;;;;;;;;;;;;;17.34;41.75;100492.84;5100003;28;951;-51
2023/11/20 04:29:13;;;;;;;;;;;;;;;16.51;43.64;100493.25;5098702;28;2524;-47
2023/11/20 04:31:40;;;;;;;;;;;;;;;16.13;44.45;100484.59;5107110;28;1078;-47
2023/11/20 04:34:05;;;;;;;;;;;;;;;16.92;42.76;100486.78;5108789;28;1053;-45
2023/11/20 04:36:31;;;;;;;;;;;;;;;17.04;42.13;100480.94;5110927;28;1906;-50
2023/11/20 04:38:56;;;;;;;;;;;;;;;16.36;43.76;100476.84;5112899;28;1460;-49
2023/11/20 04:41:22;;;;;;;;;;;;;;;16.95;42.54;100486.22;5113523;28;1078;-47
2023/11/20 04:43:47;;;;;;;;;;;;;;;16.87;42.48;100481.28;5115175;28;1076;-47
2023/11/20 04:46:13;;;;;;;;;;;;;;;16.32;43.68;100475.75;5101429;28;1585;-47
2023/11/20 04:48:38;;;;;;;;;;;;;;;17.25;41.75;100478.88;5090571;28;1105;-54
2023/11/20 04:51:04;;;;;;;;;;;;;;;16.93;42.24;100475.53;5101707;28;1180;-49
2023/11/20 04:53:29;;;;;;;;;;;;;;;16.40;43.44;100486.97;5099218;28;1038;-53
2023/11/20 04:55:55;;;;;;;;;;;;;;;16.08;44.40;100485.41;5115182;28;1051;-53
2023/11/20 04:58:21;;;;;;;;;;;;;;;17.09;42.26;100489.16;5111851;28;1901;-49
2023/11/20 05:00:47;;;;;;;;;;;;;;;16.76;42.56;100489.59;5102080;28;2640;-50
2023/11/20 05:03:13;;;;;;;;;;;;;;;16.25;43.79;100496.06;5118677;28;1022;-48
2023/11/20 05:05:39;;;;;;;;;;;;;;;16.68;43.19;100503.91;5117721;28;1041;-52
2023/11/20 05:08:04;;;;;;;;;;;;;;;17.07;42.06;100510.63;5107961;28;1185;-51
2023/11/20 05:10:30;;;;;;;;;;;;;;;16.41;43.53;100521.56;5103874;28;1090;-48
2023/11/20 05:12:55;;;;;;;;;;;;;;;17.17;41.75;100526.22;5118544;28;1014;-49
2023/11/20 05:15:21;;;;;;;;;;;;;;;17.44;41.01;100517.50;5104426;28;1060;-53
2023/11/20 05:17:47;;;;;;;;;;;;;;;16.58;42.76;100521.22;5107775;28;1980;-51
2023/11/20 05:20:12;;;;;;;;;;;;;;;16.64;42.75;100519.28;5101512;28;1022;-53
2023/11/20 05:22:38;;;;;;;;;;;;;;;17.93;40.29;100529.53;5110993;28;1037;-52
2023/11/20 05:25:04;;;;;;;;;;;;;;;17.16;41.61;100532.81;5098102;28;1077;-47
2023/11/20 05:27:29;;;;;;;;;;;;;;;16.69;42.50;100552.22;5108112;28;1098;-48
2023/11/20 05:29:55;;;;;;;;;;;;;;;17.73;40.65;100545.06;5110165;28;1846;-53
2023/11/20 05:32:20;;;;;;;;;;;;;;;14.35;48.54;100543.06;5107778;28;1002;-50
2023/11/20 05:34:46;;;;;;;;;;;;;;;15.98;44.61;100550.44;5106870;28;1204;-52
2023/11/20 05:37:12;;;;;;;;;;;;;;;16.06;43.73;100547.94;5107803;28;1901;-53
2023/11/20 05:39:39;;;;;;;;;;;;;;;15.93;43.85;100548.50;5100983;28;1006;-52
2023/11/20 05:42:05;;;;;;;;;;;;;;;15.88;43.53;100557.56;5097476;28;1046;-53
2023/11/20 05:44:30;;;;;;;;;;;;;;;15.78;43.48;100548.47;5113783;28;1086;-52
2023/11/20 05:46:55;;;;;;;;;;;;;;;16.34;43.38;100559.44;5115980;28;1169;-50
2023/11/20 05:49:21;;;;;;;;;;;;;;;16.01;44.04;100563.59;5101859;28;1116;-52
2023/11/20 05:51:47;;;;;;;;;;;;;;;15.82;43.84;100571.53;5107538;28;1217;-49
2023/11/20 05:54:12;;;;;;;;;;;;;;;15.65;43.59;100575.31;5117652;28;1136;-53
2023/11/20 05:56:38;;;;;;;;;;;;;;;15.53;43.44;100583.81;5117796;28;1969;-50
2023/11/20 05:59:04;;;;;;;;;;;;;;;15.46;43.36;100583.25;5109372;28;1175;-50
2023/11/20 06:01:38;;;;;;;;;;;;;;;16.33;43.20;100584.41;5097490;28;1170;-50
2023/11/20 06:04:03;;;;;;;;;;;;;;;15.83;44.16;100581.41;5105536;28;1231;-53
2023/11/20 06:06:29;;;;;;;;;;;;;;;15.62;44.28;100589.56;5104401;28;1169;-49
2023/11/20 06:08:54;;;;;;;;;;;;;;;15.60;43.91;100589.03;5117220;28;1145;-50
2023/11/20 06:11:20;;;;;;;;;;;;;;;15.43;43.79;100589.28;5108990;28;1090;-49
2023/11/20 06:13:46;;;;;;;;;;;;;;;15.99;43.97;100593.19;5117960;28;1120;-50
2023/11/20 06:16:14;;;;;;;;;;;;;;;15.85;44.27;100585.53;5103908;28;1525;-50
2023/11/20 06:18:40;;;;;;;;;;;;;;;15.51;44.14;100590.66;5109534;28;1932;-48
2023/11/20 06:21:05;;;;;;;;;;;;;;;15.39;44.19;100599.13;5092676;28;1126;-51
2023/11/20 06:23:31;;;;;;;;;;;;;;;15.35;43.78;100601.56;5098711;28;906;-51
2023/11/20 06:25:56;;;;;;;;;;;;;;;15.21;43.78;100597.69;5098795;28;1157;-50
2023/11/20 06:28:22;;;;;;;;;;;;;;;15.26;44.05;100603.16;5117266;28;1085;-46
2023/11/20 06:30:47;;;;;;;;;;;;;;;16.46;43.53;100600.31;5117233;28;1026;-49
2023/11/20 06:33:13;;;;;;;;;;;;;;;15.74;44.52;100603.84;5109252;28;1204;-50
2023/11/20 06:35:38;;;;;;;;;;;;;;;15.46;44.67;100607.06;5107020;28;1140;-50
2023/11/20 06:38:04;;;;;;;;;;;;;;;16.43;43.58;100598.13;5117103;28;1987;-49
2023/11/20 06:40:30;;;;;;;;;;;;;;;15.76;44.81;100597.28;5084436;28;1169;-51
2023/11/20 06:42:55;;;;;;;;;;;;;;;15.45;44.93;100599.97;5101622;28;1018;-48
2023/11/20 06:45:20;;;;;;;;;;;;;;;15.36;44.60;100599.66;5106735;28;1050;-47
2023/11/20 06:47:46;;;;;;;;;;;;;;;15.21;44.35;100606.72;5105423;28;1026;-46
2023/11/20 06:50:12;;;;;;;;;;;;;;;16.23;43.96;100612.69;5097321;28;1197;-48
2023/11/20 06:52:38;;;;;;;;;;;;;;;15.54;44.93;100595.56;5113056;28;1081;-46
2023/11/20 06:55:05;;;;;;;;;;;;;;;15.37;44.57;100602.09;5116792;28;1124;-49
2023/11/20 06:57:31;;;;;;;;;;;;;;;16.33;44.07;100595.41;5116546;28;1905;-50
2023/11/20 06:59:56;;;;;;;;;;;;;;;15.74;45.08;100595.63;5103898;28;1085;-51
2023/11/20 07:02:23;;;;;;;;;;;;;;;15.50;44.85;100589.00;5108726;28;1090;-48
2023/11/20 07:04:49;;;;;;;;;;;;;;;15.36;44.70;100592.25;5102938;28;1116;-50
2023/11/20 07:07:16;;;;;;;;;;;;;;;16.23;43.98;100585.25;5116833;28;1113;-48
2023/11/20 07:09:44;;;;;;;;;;;;;;;15.65;45.15;100569.03;5103541;28;1161;-52
2023/11/20 07:12:10;;;;;;;;;;;;;;;15.38;44.91;100579.09;5103955;28;1076;-47
2023/11/20 07:14:35;;;;;;;;;;;;;;;15.31;44.46;100577.72;5116572;28;1121;-49
2023/11/20 07:17:01;;;;;;;;;;;;;;;15.96;44.43;100572.63;5109481;28;2045;-46
2023/11/20 07:19:26;;;;;;;;;;;;;;;15.43;45.24;100564.63;5109179;28;1175;-47
2023/11/20 07:21:51;;;;;;;;;;;;;;;15.36;44.71;100573.09;5108870;28;1105;-46
2023/11/20 07:24:17;;;;;;;;;;;;;;;15.55;44.87;100561.59;5104651;28;1153;-47
2023/11/20 07:26:43;;;;;;;;;;;;;;;15.84;44.56;100572.09;5108564;28;1224;-49
2023/11/20 07:29:08;;;;;;;;;;;;;;;15.45;45.11;100569.81;5106638;28;1128;-44
2023/11/20 07:31:35;;;;;;;;;;;;;;;16.00;44.47;100576.47;5109317;28;1102;-45
2023/11/20 07:34:01;;;;;;;;;;;;;;;15.99;44.52;100561.13;5106328;28;1070;-48
2023/11/20 07:36:27;;;;;;;;;;;;;;;15.59;45.21;100565.44;5106749;28;1988;-45
2023/11/20 07:38:52;;;;;;;;;;;;;;;15.45;44.89;100558.84;5104534;28;1461;-48
2023/11/20 07:41:18;;;;;;;;;;;;;;;15.26;44.57;100561.28;5102899;28;1148;-48
2023/11/20 07:43:44;;;;;;;;;;;;;;;15.57;44.59;100563.00;5106424;28;1133;-50
2023/11/20 07:46:09;;;;;;;;;;;;;;;15.91;44.75;100567.97;5096847;28;1147;-48
2023/11/20 07:48:35;;;;;;;;;;;;;;;15.50;45.22;100567.06;5100525;28;1042;-47
2023/11/20 07:51:01;;;;;;;;;;;;;;;15.39;44.89;100563.50;5096894;28;1182;-46
2023/11/20 07:53:27;;;;;;;;;;;;;;;16.45;44.17;100552.00;5116462;28;1208;-51
2023/11/20 07:55:52;;;;;;;;;;;;;;;15.70;45.32;100553.41;5101175;28;1079;-47
2023/11/20 07:58:18;;;;;;;;;;;;;;;15.46;45.24;100550.38;5103831;28;1914;-47
2023/11/20 08:00:43;;;;;;;;;;;;;;;15.37;44.77;100552.78;5111635;28;936;-48
2023/11/20 08:03:09;;;;;;;;;;;;;;;15.45;44.80;100556.13;5112678;28;1017;-45
2023/11/20 08:05:34;;;;;;;;;;;;;;;15.71;45.35;100566.03;5105594;28;1374;-50
2023/11/20 08:08:00;;;;;;;;;;;;;;;15.36;45.22;100556.66;5108993;28;1118;-47
2023/11/20 08:10:26;;;;;;;;;;;;;;;15.99;44.98;100563.88;5102128;28;1279;-46
2023/11/20 08:12:51;;;;;;;;;;;;;;;15.85;45.25;100569.06;5109065;28;880;-50
2023/11/20 08:15:17;;;;;;;;;;;;;;;15.46;45.62;100564.06;5102633;28;1153;-47
2023/11/20 08:17:42;;;;;;;;;;;;;;;15.37;44.78;100557.47;5108545;28;1898;-47
2023/11/20 08:20:09;;;;;;;;;;;;;;;16.06;44.97;100549.84;5109286;28;1134;-49
2023/11/20 08:22:36;;;;;;;;;;;;;;;15.65;45.37;100564.34;5095885;28;1051;-50
2023/11/20 08:25:01;;;;;;;;;;;;;;;15.32;45.35;100566.50;5096035;28;907;-48
2023/11/20 08:27:27;;;;;;;;;;;;;;;16.19;44.63;100563.03;5095427;28;1050;-47
2023/11/20 08:29:54;;;;;;;;;;;;;;;15.63;45.25;100569.28;5108819;28;1105;-48
2023/11/20 08:32:19;;;;;;;;;;;;;;;15.34;45.15;100564.28;5103142;28;1296;-46
2023/11/20 08:34:46;;;;;;;;;;;;;;;16.13;44.86;100564.13;5105653;28;1165;-49
2023/11/20 08:37:11;;;;;;;;;;;;;;;15.81;45.15;100561.66;5114901;28;1889;-50
2023/11/20 08:39:41;;;;;;;;;;;;;;;15.54;45.26;100555.31;5101308;28;1120;-48
2023/11/20 08:42:07;;;;;;;;;;;;;;;15.34;45.16;100556.06;5099359;28;1201;-49
2023/11/20 08:44:33;;;;;;;;;;;;;;;16.29;44.38;100553.16;5098833;28;1132;-46
2023/11/20 08:46:59;;;;;;;;;;;;;;;15.65;45.28;100542.41;5106494;28;1090;-48
2023/11/20 08:49:26;;;;;;;;;;;;;;;15.76;45.18;100542.44;5107756;28;908;-44
2023/11/20 08:51:52;;;;;;;;;;;;;;;16.00;44.86;100527.09;5118868;28;1093;-47
2023/11/20 08:54:18;;;;;;;;;;;;;;;15.59;45.30;100521.59;5110253;28;1157;-44
2023/11/20 08:56:45;;;;;;;;;;;;;;;15.42;45.01;100526.50;5112262;28;1963;-46
2023/11/20 08:59:10;;;;;;;;;;;;;;;15.99;44.77;100520.00;5098134;28;1132;-45
2023/11/20 09:01:37;;;;;;;;;;;;;;;15.95;45.06;100520.78;5112459;28;976;-49
2023/11/20 09:04:02;;;;;;;;;;;;;;;15.55;45.21;100512.28;5108006;28;1043;-47
2023/11/20 09:06:28;;;;;;;;;;;;;;;15.41;45.04;100512.00;5105329;28;1216;-47
2023/11/20 09:08:53;;;;;;;;;;;;;;;15.35;44.73;100505.69;5110332;28;1167;-47
2023/11/20 09:11:19;;;;;;;;;;;;;;;15.19;44.57;100504.84;5098567;28;1073;-47
2023/11/20 09:13:44;;;;;;;;;;;;;;;15.94;44.76;100511.75;5116496;28;908;-48
2023/11/20 09:16:10;;;;;;;;;;;;;;;15.43;45.58;100507.06;5103132;28;1160;-46
2023/11/20 09:18:35;;;;;;;;;;;;;;;15.27;45.28;100510.88;5080322;28;1898;-48
2023/11/20 09:21:04;;;;;;;;;;;;;;;16.10;44.79;100512.56;5098748;28;1094;-50
2023/11/20 09:23:30;;;;;;;;;;;;;;;15.68;45.33;100514.50;5107261;28;1241;-47
2023/11/20 09:25:56;;;;;;;;;;;;;;;15.38;45.40;100510.59;5114897;28;962;-49
2023/11/20 09:28:23;;;;;;;;;;;;;;;16.07;44.83;100500.25;5109670;28;1074;-49
2023/11/20 09:30:48;;;;;;;;;;;;;;;15.86;45.03;100498.59;5111670;28;1145;-50
2023/11/20 09:33:14;;;;;;;;;;;;;;;15.57;45.46;100504.59;5107609;28;1062;-46
2023/11/20 09:35:39;;;;;;;;;;;;;;;15.35;45.13;100489.25;5118588;28;1160;-48
2023/11/20 09:38:05;;;;;;;;;;;;;;;15.14;45.04;100485.66;5107363;28;1910;-46
2023/11/20 09:40:31;;;;;;;;;;;;;;;16.33;44.31;100485.63;5104242;28;1105;-46
2023/11/20 09:42:57;;;;;;;;;;;;;;;15.82;45.30;100492.88;5114335;28;1057;-45
2023/11/20 09:45:26;;;;;;;;;;;;;;;15.47;45.40;100491.72;5108151;28;1150;-48
2023/11/20 09:47:53;;;;;;;;;;;;;;;16.29;44.43;100495.53;5103237;28;1045;-48
2023/11/20 09:50:19;;;;;;;;;;;;;;;15.69;45.50;100487.88;5108287;28;987;-49
2023/11/20 09:52:44;;;;;;;;;;;;;;;17.00;43.45;100483.44;5104125;28;1232;-49
2023/11/20 09:55:10;;;;;;;;;;;;;;;16.52;44.27;100474.84;5104625;28;1457;-47
2023/11/20 09:57:35;;;;;;;;;;;;;;;16.02;44.95;100464.59;5099426;28;1980;-48
2023/11/20 10:00:02;;;;;;;;;;;;;;;15.76;45.29;100476.66;5117151;28;1139;-47
2023/11/20 10:02:31;;;;;;;;;;;;;;;16.38;44.71;100461.75;5106317;27;1082;-48
2023/11/20 10:04:56;;;;;;;;;;;;;;;15.83;45.36;100455.28;5087150;28;1229;-45
2023/11/20 10:07:23;;;;;;;;;;;;;;;15.68;45.41;100454.19;5104262;28;1033;-47
2023/11/20 10:09:51;;;;;;;;;;;;;;;15.51;45.21;100456.38;5110314;28;1157;-47
2023/11/20 10:12:17;;;;;;;;;;;;;;;16.25;44.74;100452.16;5109853;28;1081;-49
2023/11/20 10:14:43;;;;;;;;;;;;;;;15.77;45.28;100462.66;5104707;28;1042;-49
2023/11/20 10:17:09;;;;;;;;;;;;;;;15.53;45.09;100462.41;5098571;28;1969;-50
2023/11/20 10:19:35;;;;;;;;;;;;;;;15.56;44.97;100462.66;5086905;28;1043;-50
2023/11/20 10:22:04;;;;;;;;;;;;;;;16.15;44.93;100454.13;5116351;28;1053;-49
2023/11/20 10:24:29;;;;;;;;;;;;;;;15.70;45.36;100468.44;5102855;28;1142;-51
2023/11/20 10:26:55;;;;;;;;;;;;;;;15.90;45.27;100464.06;5112078;28;1050;-46
2023/11/20 10:29:21;;;;;;;;;;;;;;;16.22;44.94;100457.41;5117047;28;1150;-47
2023/11/20 10:31:46;;;;;;;;;;;;;;;15.83;45.22;100445.13;5115718;28;1084;-49
2023/11/20 10:34:12;;;;;;;;;;;;;;;15.59;44.79;100435.81;5105068;28;1136;-49
2023/11/20 10:36:40;;;;;;;;;;;;;;;15.31;45.02;100416.91;5114484;28;1960;-45
2023/11/20 10:39:12;;;;;;;;;;;;;;;15.35;44.15;100426.22;5116807;28;1014;-48
2023/11/20 10:41:41;;;;;;;;;;;;;;;16.33;44.54;100417.84;5095438;28;1074;-48
2023/11/20 10:44:07;;;;;;;;;;;;;;;16.02;45.20;100415.22;5113946;28;1192;-48
2023/11/20 10:46:33;;;;;;;;;;;;;;;15.62;45.26;100411.41;5106991;28;1038;-50
2023/11/20 10:48:58;;;;;;;;;;;;;;;16.41;44.69;100411.78;5110084;28;1205;-45
2023/11/20 10:51:25;;;;;;;;;;;;;;;15.77;45.45;100412.47;5098788;28;1078;-45
2023/11/20 10:53:55;;;;;;;;;;;;;;;15.51;45.45;100410.59;5116771;28;1092;-47
2023/11/20 10:56:20;;;;;;;;;;;;;;;15.46;44.57;100423.47;5105896;28;1133;-47
2023/11/20 10:58:46;;;;;;;;;;;;;;;15.75;45.15;100420.97;5095334;28;1910;-47
2023/11/20 11:01:11;;;;;;;;;;;;;;;15.97;45.39;100419.91;5110162;28;1144;-47
2023/11/20 11:03:37;;;;;;;;;;;;;;;15.63;45.38;100428.69;5085455;28;1188;-48
2023/11/20 11:06:12;;;;;;;;;;;;;;;15.42;44.98;100427.88;5106720;28;1109;-47
2023/11/20 11:08:37;;;;;;;;;;;;;;;15.31;44.78;100418.84;5113712;28;1034;-48
2023/11/20 11:11:03;;;;;;;;;;;;;;;16.66;44.30;100420.16;5117019;28;1073;-46
2023/11/20 11:13:32;;;;;;;;;;;;;;;15.78;45.88;100425.94;5108434;28;1025;-46
2023/11/20 11:15:58;;;;;;;;;;;;;;;15.61;45.29;100417.19;5116521;28;1108;-48
2023/11/20 11:18:25;;;;;;;;;;;;;;;15.48;45.00;100421.31;5087451;28;1967;-47
2023/11/20 11:20:54;;;;;;;;;;;;;;;16.54;44.68;100420.50;5098396;28;1202;-46
2023/11/20 11:23:28;;;;;;;;;;;;;;;15.80;45.67;100418.28;5104775;28;1082;-45
2023/11/20 11:25:57;;;;;;;;;;;;;;;15.70;45.58;100424.56;5106674;28;1010;-48
2023/11/20 11:28:23;;;;;;;;;;;;;;;15.90;45.59;100422.91;5102935;28;1098;-43
2023/11/20 11:30:48;;;;;;;;;;;;;;;15.69;45.54;100431.13;5102289;28;1081;-45
2023/11/20 11:33:22;;;;;;;;;;;;;;;15.44;45.16;100428.44;5108002;28;1061;-46
2023/11/20 11:35:54;;;;;;;;;;;;;;;15.25;45.16;100433.63;5103142;28;1193;-47
2023/11/20 11:38:23;;;;;;;;;;;;;;;15.91;45.35;100435.53;5105922;28;1978;-47
2023/11/20 11:41:04;;;;;;;;;;;;;;;15.55;45.99;100441.03;5102626;28;1343;-49
2023/11/20 11:43:32;;;;;;;;;;;;;;;15.37;45.27;100456.09;5102737;28;1110;-45
2023/11/20 11:46:00;;;;;;;;;;;;;;;15.75;45.53;100445.66;5077616;28;1043;-45
2023/11/20 11:48:32;;;;;;;;;;;;;;;16.20;45.31;100440.38;5107475;28;1112;-46
2023/11/20 11:50:57;;;;;;;;;;;;;;;15.64;45.91;100444.03;5113429;28;845;-45
2023/11/20 11:53:23;;;;;;;;;;;;;;;16.06;45.83;100435.50;5116362;28;1061;-47
2023/11/20 11:55:49;;;;;;;;;;;;;;;16.15;45.40;100438.50;5113797;28;1103;-45
2023/11/20 11:58:15;;;;;;;;;;;;;;;15.73;45.56;100445.13;5078228;28;1902;-44
2023/11/20 12:00:41;;;;;;;;;;;;;;;15.47;45.54;100436.09;5096200;28;1109;-48
2023/11/20 12:03:11;;;;;;;;;;;;;;;16.16;45.58;100431.91;5105238;28;937;-46
2023/11/20 12:05:55;;;;;;;;;;;;;;;15.87;45.89;100428.97;5098293;28;1058;-45
2023/11/20 12:08:25;;;;;;;;;;;;;;;15.61;46.07;100433.63;5108558;28;1133;-46
2023/11/20 12:10:51;;;;;;;;;;;;;;;15.50;45.38;100419.94;5119016;28;1030;-47
2023/11/20 12:13:17;;;;;;;;;;;;;;;15.43;44.96;100424.03;5109531;28;1085;-46
2023/11/20 12:15:49;;;;;;;;;;;;;;;15.48;44.55;100429.53;5100118;28;1057;-46
2023/11/20 12:18:15;;;;;;;;;;;;;;;16.49;45.19;100428.75;5112733;28;1913;-45
2023/11/20 12:20:49;;;;;;;;;;;;;;;15.80;45.76;100426.50;5099387;28;1137;-47
2023/11/20 12:23:19;;;;;;;;;;;;;;;15.59;45.42;100428.41;5113163;28;1139;-48
2023/11/20 12:25:45;;;;;;;;;;;;;;;16.56;45.00;100429.28;5104125;28;1059;-46
2023/11/20 12:28:11;;;;;;;;;;;;;;;16.17;45.63;100427.22;5116640;28;1240;-47
2023/11/20 12:30:37;;;;;;;;;;;;;;;15.83;45.85;100423.19;5091103;28;1393;-48
2023/11/20 12:33:03;;;;;;;;;;;;;;;15.63;45.48;100423.22;5099079;28;1050;-44
2023/11/20 12:35:29;;;;;;;;;;;;;;;15.51;44.97;100426.22;5099558;28;1019;-45
2023/11/20 12:37:54;;;;;;;;;;;;;;;16.43;45.38;100426.03;5100876;28;1910;-46
2023/11/20 12:40:20;;;;;;;;;;;;;;;16.00;45.92;100417.41;5081203;28;1507;-45
2023/11/20 12:42:45;;;;;;;;;;;;;;;15.72;46.00;100429.78;5101581;28;1098;-45